createdAt,value
2022-10-15T00:01:12.289Z,24.00
2022-10-15T00:06:55.743Z,17.63
2022-10-15T00:09:44.558Z,12.80
2022-10-15T00:12:33.494Z,16.20
2022-10-15T00:15:22.356Z,17.00
2022-10-15T00:18:12.542Z,14.77
2022-10-15T00:21:01.392Z,17.57
2022-10-15T00:23:50.603Z,15.73
2022-10-15T00:26:39.467Z,16.37
2022-10-15T00:29:28.286Z,17.20
2022-10-15T00:32:17.103Z,17.93
2022-10-15T00:35:07.761Z,16.57
2022-10-15T00:37:56.680Z,17.17
2022-10-15T00:40:45.512Z,16.07
2022-10-15T00:43:38.090Z,19.63
2022-10-15T00:46:28.728Z,16.43
2022-10-15T00:49:19.484Z,15.53
2022-10-15T00:52:11.158Z,20.53
2022-10-15T00:55:03.807Z,19.93
2022-10-15T00:57:52.630Z,16.43
2022-10-15T01:00:41.503Z,13.70
2022-10-15T01:03:30.472Z,11.80
2022-10-15T01:06:19.306Z,12.10
2022-10-15T01:09:09.495Z,12.07
2022-10-15T01:11:58.859Z,9.47
2022-10-15T01:14:51.257Z,11.30
2022-10-15T01:17:42.507Z,14.20
2022-10-15T01:21:01.586Z,14.00
2022-10-15T01:24:10.153Z,15.97
2022-10-15T01:27:11.420Z,12.60
2022-10-15T01:30:05.772Z,11.53
2022-10-15T01:33:05.754Z,11.93
2022-10-15T01:35:56.188Z,10.53
2022-10-15T01:38:49.005Z,11.23
2022-10-15T01:41:41.240Z,17.40
2022-10-15T01:44:32.738Z,12.60
2022-10-15T01:47:23.153Z,13.27
2022-10-15T01:50:14.802Z,10.10
2022-10-15T01:53:05.353Z,14.70
2022-10-15T01:55:55.308Z,10.93
2022-10-15T01:58:45.038Z,14.63
2022-10-15T02:01:33.987Z,15.00
2022-10-15T02:04:24.377Z,17.23
2022-10-15T02:07:17.155Z,16.60
2022-10-15T02:10:09.883Z,17.33
2022-10-15T02:13:04.167Z,17.77
2022-10-15T02:15:57.812Z,20.30
2022-10-15T02:18:49.075Z,16.67
2022-10-15T02:21:40.729Z,15.67
2022-10-15T02:24:35.312Z,12.43
2022-10-15T02:27:24.137Z,16.43
2022-10-15T02:30:14.430Z,18.83
2022-10-15T02:33:03.420Z,17.47
2022-10-15T02:35:52.961Z,19.80
2022-10-15T02:38:42.742Z,20.00
2022-10-15T02:41:35.528Z,23.27
2022-10-15T02:44:24.345Z,21.47
2022-10-15T02:47:14.485Z,22.80
2022-10-15T02:50:03.340Z,16.00
2022-10-15T02:52:52.189Z,15.07
2022-10-15T02:55:41.349Z,19.37
2022-10-15T02:58:31.857Z,16.50
2022-10-15T03:01:20.785Z,21.60
2022-10-15T03:04:09.625Z,24.30
2022-10-15T03:06:58.444Z,30.63
2022-10-15T03:09:47.260Z,22.77
2022-10-15T03:12:36.403Z,21.03
2022-10-15T03:15:26.566Z,22.53
2022-10-15T03:18:15.412Z,29.20
2022-10-15T03:21:04.305Z,31.83
2022-10-15T03:23:53.106Z,32.67
2022-10-15T03:26:41.989Z,37.27
2022-10-15T03:29:30.837Z,38.13
2022-10-15T03:32:21.036Z,36.23
2022-10-15T03:35:10.100Z,42.03
2022-10-15T03:37:58.971Z,41.07
2022-10-15T03:40:48.170Z,53.87
2022-10-15T03:43:40.228Z,50.57
2022-10-15T03:46:31.604Z,56.37
2022-10-15T03:49:21.837Z,52.90
2022-10-15T03:52:10.679Z,54.67
2022-10-15T03:54:59.638Z,54.37
2022-10-15T03:57:48.469Z,60.07
2022-10-15T04:00:37.292Z,56.17
2022-10-15T04:03:26.180Z,54.40
2022-10-15T04:06:16.398Z,58.70
2022-10-15T04:09:05.299Z,59.23
2022-10-15T04:11:54.207Z,62.10
2022-10-15T04:14:43.311Z,56.93
2022-10-15T04:17:32.142Z,55.27
2022-10-15T04:20:21.008Z,61.77
2022-10-15T04:23:11.185Z,63.97
2022-10-15T04:26:01.039Z,66.00
2022-10-15T04:28:50.633Z,58.23
2022-10-15T04:31:39.495Z,58.47
2022-10-15T04:34:28.593Z,56.10
2022-10-15T04:37:17.425Z,61.60
2022-10-15T04:40:08.595Z,57.90
2022-10-15T04:42:57.475Z,52.27
2022-10-15T04:45:46.337Z,63.53
2022-10-15T04:48:37.723Z,69.50
2022-10-15T04:51:29.270Z,58.53
2022-10-15T04:54:18.210Z,61.80
2022-10-15T04:57:08.483Z,57.30
2022-10-15T04:59:57.977Z,55.27
2022-10-15T05:02:46.942Z,58.10
2022-10-15T05:05:35.787Z,62.57
2022-10-15T05:08:25.118Z,56.63
2022-10-15T05:11:15.569Z,48.43
2022-10-15T05:14:06.408Z,59.40
2022-10-15T05:16:55.344Z,56.10
2022-10-15T05:19:44.210Z,55.97
2022-10-15T05:22:33.021Z,52.70
2022-10-15T05:25:21.872Z,50.57
2022-10-15T05:28:10.703Z,45.53
2022-10-15T05:31:05.125Z,43.77
2022-10-15T05:33:54.612Z,42.20
2022-10-15T05:36:43.442Z,44.70
2022-10-15T05:39:32.245Z,39.13
2022-10-15T05:42:21.058Z,40.13
2022-10-15T05:45:10.359Z,39.73
2022-10-15T05:48:00.539Z,44.47
2022-10-15T05:50:49.349Z,39.87
2022-10-15T05:53:38.564Z,35.20
2022-10-15T05:56:28.085Z,37.77
2022-10-15T05:59:16.924Z,34.70
2022-10-15T06:02:05.835Z,36.70
2022-10-15T06:04:56.331Z,41.20
2022-10-15T06:07:45.133Z,45.73
2022-10-15T06:10:36.737Z,38.77
2022-10-15T06:16:19.307Z,41.20
2022-10-15T06:19:11.773Z,41.83
2022-10-15T06:22:01.900Z,42.87
2022-10-15T06:24:50.756Z,41.47
2022-10-15T06:27:39.594Z,42.00
2022-10-15T06:30:28.548Z,43.77
2022-10-15T06:33:17.404Z,35.53
2022-10-15T06:36:07.384Z,39.50
2022-10-15T06:38:58.129Z,38.77
2022-10-15T06:41:46.978Z,39.93
2022-10-15T06:44:35.792Z,34.50
2022-10-15T06:47:25.032Z,34.27
2022-10-15T06:50:14.388Z,34.77
2022-10-15T06:53:03.527Z,31.17
2022-10-15T06:55:53.772Z,30.80
2022-10-15T06:58:43.246Z,36.70
2022-10-15T07:01:32.574Z,48.50
2022-10-15T07:04:21.534Z,31.67
2022-10-15T07:07:10.491Z,34.40
2022-10-15T07:09:59.363Z,33.30
2022-10-15T07:12:49.548Z,34.37
2022-10-15T07:15:38.404Z,35.00
2022-10-15T07:18:27.252Z,32.90
2022-10-15T07:21:16.082Z,29.43
2022-10-15T07:24:05.105Z,31.90
2022-10-15T07:26:53.916Z,30.10
2022-10-15T07:29:44.161Z,34.57
2022-10-15T07:32:33.005Z,32.17
2022-10-15T07:35:21.865Z,35.07
2022-10-15T07:38:10.773Z,34.33
2022-10-15T07:41:00.159Z,33.53
2022-10-15T07:43:49.036Z,33.10
2022-10-15T07:46:39.193Z,32.87
2022-10-15T07:49:28.023Z,26.70
2022-10-15T07:52:16.843Z,25.93
2022-10-15T07:55:05.980Z,24.60
2022-10-15T07:57:58.742Z,24.47
2022-10-15T08:00:47.773Z,26.57
2022-10-15T08:03:38.206Z,23.20
2022-10-15T08:06:27.043Z,24.00
2022-10-15T08:09:15.882Z,25.90
2022-10-15T08:12:06.670Z,22.57
2022-10-15T08:14:55.522Z,24.30
2022-10-15T08:17:44.337Z,20.87
2022-10-15T08:20:34.535Z,20.93
2022-10-15T08:23:23.361Z,23.47
2022-10-15T08:26:12.253Z,26.80
2022-10-15T08:29:01.150Z,23.40
2022-10-15T08:31:51.004Z,21.57
2022-10-15T08:34:39.886Z,21.60
2022-10-15T08:37:30.156Z,24.40
2022-10-15T08:40:19.174Z,19.43
2022-10-15T08:43:08.072Z,22.43
2022-10-15T08:45:58.953Z,26.40
2022-10-15T08:48:49.423Z,21.70
2022-10-15T08:51:42.134Z,25.13
2022-10-15T08:54:35.344Z,19.10
2022-10-15T08:57:38.516Z,15.77
2022-10-15T09:00:35.938Z,18.33
2022-10-15T09:03:38.285Z,11.13
2022-10-15T09:06:29.177Z,12.27
2022-10-15T09:09:21.488Z,12.27
2022-10-15T09:12:20.514Z,13.23
2022-10-15T09:15:12.034Z,14.10
2022-10-15T09:18:00.828Z,12.10
2022-10-15T09:20:50.258Z,12.00
2022-10-15T09:23:39.106Z,12.20
2022-10-15T09:26:29.601Z,12.50
2022-10-15T09:29:24.447Z,10.53
2022-10-15T09:32:17.229Z,9.23
2022-10-15T09:35:13.166Z,13.10
2022-10-15T09:38:07.026Z,12.00
2022-10-15T09:41:02.407Z,9.17
2022-10-15T09:43:52.003Z,10.23
2022-10-15T09:46:46.225Z,8.55
2022-10-15T09:49:36.516Z,8.35
2022-10-15T09:52:28.790Z,9.50
2022-10-15T09:55:26.486Z,8.35
2022-10-15T09:58:18.291Z,7.73
2022-10-15T10:01:07.677Z,6.90
2022-10-15T10:04:11.904Z,5.27
2022-10-15T10:07:02.337Z,5.20
2022-10-15T10:09:52.612Z,3.60
2022-10-15T10:12:45.310Z,4.33
2022-10-15T10:15:35.150Z,3.23
2022-10-15T10:18:25.431Z,2.75
2022-10-15T10:21:24.229Z,3.30
2022-10-15T10:24:28.338Z,3.03
2022-10-15T10:27:20.177Z,2.42
2022-10-15T10:30:09.519Z,1.80
2022-10-15T10:33:00.130Z,1.90
2022-10-15T10:35:52.446Z,1.45
2022-10-15T10:38:42.700Z,1.60
2022-10-15T10:41:50.842Z,1.92
2022-10-15T10:44:41.138Z,1.80
2022-10-15T10:47:39.370Z,1.70
2022-10-15T10:50:29.832Z,1.50
2022-10-15T10:53:22.998Z,1.97
2022-10-15T10:56:15.444Z,1.40
2022-10-15T10:59:06.079Z,1.20
2022-10-15T11:01:56.591Z,1.30
2022-10-15T11:04:45.474Z,2.40
2022-10-15T11:07:41.624Z,1.47
2022-10-15T11:10:35.050Z,1.40
2022-10-15T11:13:34.948Z,1.20
2022-10-15T11:16:31.457Z,3.67
2022-10-15T11:19:54.522Z,2.00
2022-10-15T11:22:44.121Z,1.00
2022-10-15T11:25:36.485Z,1.20
2022-10-15T11:28:31.883Z,1.40
2022-10-15T11:31:26.528Z,1.20
2022-10-15T11:34:22.248Z,1.00
2022-10-15T11:37:20.547Z,1.10
2022-10-15T11:40:15.980Z,3.10
2022-10-15T11:43:08.987Z,1.30
2022-10-15T11:46:02.028Z,2.30
2022-10-15T11:49:00.299Z,2.27
2022-10-15T11:51:54.466Z,2.93
2022-10-15T11:54:44.932Z,1.00
2022-10-15T11:57:36.041Z,0.90
2022-10-15T12:00:31.184Z,1.53
2022-10-15T12:03:23.683Z,2.90
2022-10-15T12:06:17.599Z,1.20
2022-10-15T12:09:08.066Z,1.27
2022-10-15T12:12:02.144Z,0.97
2022-10-15T12:14:54.945Z,3.60
2022-10-15T12:17:47.887Z,1.13
2022-10-15T12:20:36.972Z,1.43
2022-10-15T12:23:28.340Z,0.97
2022-10-15T12:26:33.795Z,1.40
2022-10-15T12:29:23.669Z,1.23
2022-10-15T12:32:22.359Z,2.07
2022-10-15T12:38:22.058Z,2.87
2022-10-15T12:41:13.251Z,2.70
2022-10-15T12:44:06.916Z,6.30
2022-10-15T12:46:55.827Z,4.97
2022-10-15T12:49:48.857Z,2.37
2022-10-15T12:52:57.779Z,1.67
2022-10-15T12:55:46.631Z,1.40
2022-10-15T12:58:37.535Z,1.80
2022-10-15T13:01:30.493Z,2.50
2022-10-15T13:04:20.062Z,1.10
2022-10-15T13:07:08.910Z,1.47
2022-10-15T13:09:57.931Z,1.60
2022-10-15T13:12:46.829Z,0.90
2022-10-15T13:15:37.034Z,1.10
2022-10-15T13:18:26.372Z,1.10
2022-10-15T13:21:15.201Z,3.50
2022-10-15T13:24:04.015Z,2.90
2022-10-15T13:26:52.846Z,1.90
2022-10-15T13:29:41.670Z,1.00
2022-10-15T13:32:33.062Z,4.57
2022-10-15T13:35:24.206Z,1.47
2022-10-15T13:38:20.707Z,1.87
2022-10-15T13:41:09.717Z,1.10
2022-10-15T13:44:00.950Z,1.53
2022-10-15T13:46:49.786Z,1.33
2022-10-15T13:49:39.966Z,1.10
2022-10-15T13:52:28.879Z,3.13
2022-10-15T13:55:25.574Z,1.80
2022-10-15T13:58:21.245Z,1.10
2022-10-15T14:01:15.909Z,0.90
2022-10-15T14:04:05.528Z,1.10
2022-10-15T14:09:50.503Z,1.77
2022-10-15T14:12:39.363Z,2.27
2022-10-15T14:15:41.973Z,1.57
2022-10-15T14:18:35.550Z,3.43
2022-10-15T14:21:28.882Z,1.00
2022-10-15T14:24:21.693Z,1.20
2022-10-15T14:27:15.640Z,2.33
2022-10-15T14:30:07.451Z,2.43
2022-10-15T14:32:57.458Z,1.30
2022-10-15T14:35:46.333Z,1.20
2022-10-15T14:38:35.397Z,1.20
2022-10-15T14:41:27.786Z,1.00
2022-10-15T14:44:20.733Z,1.87
2022-10-15T14:47:16.303Z,1.60
2022-10-15T14:50:06.147Z,2.53
2022-10-15T14:52:55.743Z,1.90
2022-10-15T14:55:45.194Z,2.80
2022-10-15T14:58:35.770Z,1.10
2022-10-15T15:01:24.948Z,1.23
2022-10-15T15:04:28.659Z,2.83
2022-10-15T15:07:18.928Z,1.57
2022-10-15T15:10:08.831Z,2.47
2022-10-15T15:12:58.449Z,3.30
2022-10-15T15:15:48.838Z,1.87
2022-10-15T15:18:37.656Z,1.40
2022-10-15T15:21:26.499Z,3.97
2022-10-15T15:24:15.376Z,1.73
2022-10-15T15:27:04.173Z,5.63
2022-10-15T15:29:53.244Z,3.83
2022-10-15T15:32:43.457Z,7.53
2022-10-15T15:35:36.873Z,3.00
2022-10-15T15:38:30.684Z,1.33
2022-10-15T15:41:20.452Z,2.10
2022-10-15T15:44:13.049Z,2.50
2022-10-15T15:47:01.844Z,2.07
2022-10-15T15:49:52.029Z,1.43
2022-10-15T15:52:43.583Z,1.47
2022-10-15T15:55:32.635Z,2.03
2022-10-15T15:58:21.559Z,4.30
2022-10-15T16:01:10.421Z,1.70
2022-10-15T16:03:59.254Z,1.50
2022-10-15T16:06:49.645Z,1.60
2022-10-15T16:09:38.885Z,1.73
2022-10-15T16:12:27.721Z,2.47
2022-10-15T16:15:16.552Z,2.33
2022-10-15T16:18:05.461Z,1.73
2022-10-15T16:20:54.396Z,2.50
2022-10-15T16:23:44.583Z,3.60
2022-10-15T16:26:33.428Z,3.07
2022-10-15T16:29:22.281Z,3.40
2022-10-15T16:32:11.421Z,2.30
2022-10-15T16:35:00.297Z,1.90
2022-10-15T16:37:49.481Z,2.30
2022-10-15T16:40:39.850Z,2.60
2022-10-15T16:43:28.743Z,2.70
2022-10-15T16:46:17.847Z,3.50
2022-10-15T16:49:06.702Z,2.10
2022-10-15T16:51:55.655Z,2.40
2022-10-15T16:54:44.465Z,4.07
2022-10-15T16:57:34.658Z,6.73
2022-10-15T17:00:23.485Z,5.40
2022-10-15T17:03:12.289Z,4.33
2022-10-15T17:06:01.783Z,2.50
2022-10-15T17:08:51.825Z,3.47
2022-10-15T17:11:41.908Z,2.07
2022-10-15T17:14:32.071Z,2.40
2022-10-15T17:17:20.919Z,4.37
2022-10-15T17:20:10.304Z,5.53
2022-10-15T17:22:59.146Z,5.80
2022-10-15T17:25:47.979Z,5.20
2022-10-15T17:28:36.881Z,7.80
2022-10-15T17:31:27.842Z,11.37
2022-10-15T17:34:16.914Z,6.67
2022-10-15T17:37:05.766Z,8.40
2022-10-15T17:39:58.088Z,5.20
2022-10-15T17:42:46.955Z,9.30
2022-10-15T17:45:35.791Z,5.93
2022-10-15T17:48:26.066Z,5.13
2022-10-15T17:51:16.686Z,4.40
2022-10-15T17:54:05.565Z,4.63
2022-10-15T17:56:54.400Z,4.83
2022-10-15T17:59:45.346Z,6.37
2022-10-15T18:02:36.351Z,4.23
2022-10-15T18:05:26.598Z,4.80
2022-10-15T18:08:15.466Z,6.63
2022-10-15T18:11:04.522Z,2.97
2022-10-15T18:13:53.705Z,3.67
2022-10-15T18:16:43.236Z,5.40
2022-10-15T18:19:32.226Z,4.93
2022-10-15T18:22:22.405Z,5.13
2022-10-15T18:25:11.858Z,3.37
2022-10-15T18:28:00.997Z,2.97
2022-10-15T18:30:49.859Z,5.40
2022-10-15T18:33:39.928Z,2.70
2022-10-15T18:36:29.705Z,1.83
2022-10-15T18:39:20.036Z,2.90
2022-10-15T18:42:09.166Z,1.73
2022-10-15T18:44:58.011Z,2.70
2022-10-15T18:47:46.861Z,2.00
2022-10-15T18:50:36.101Z,2.53
2022-10-15T18:53:25.990Z,2.03
2022-10-15T18:56:16.175Z,1.97
2022-10-15T18:59:05.001Z,2.60
2022-10-15T19:01:53.917Z,2.93
2022-10-15T19:04:42.775Z,2.87
2022-10-15T19:07:31.813Z,6.27
2022-10-15T19:10:20.702Z,4.70
2022-10-15T19:13:10.861Z,4.30
2022-10-15T19:16:01.679Z,2.50
2022-10-15T19:18:50.607Z,3.50
2022-10-15T19:21:39.456Z,2.20
2022-10-15T19:24:28.517Z,2.30
2022-10-15T19:27:17.538Z,3.77
2022-10-15T19:30:08.566Z,2.43
2022-10-15T19:32:57.422Z,2.77
2022-10-15T19:35:46.441Z,5.13
2022-10-15T19:38:35.378Z,4.00
2022-10-15T19:41:24.172Z,4.60
2022-10-15T19:44:13.909Z,8.57
2022-10-15T19:47:04.123Z,4.00
2022-10-15T19:49:54.315Z,4.07
2022-10-15T19:52:43.109Z,4.90
2022-10-15T19:55:31.906Z,5.70
2022-10-15T19:58:21.059Z,4.10
2022-10-15T20:01:09.985Z,5.80
2022-10-15T20:04:04.774Z,5.13
2022-10-15T20:06:55.273Z,6.30
2022-10-15T20:09:44.106Z,5.97
2022-10-15T20:12:32.939Z,5.87
2022-10-15T20:15:21.771Z,6.73
2022-10-15T20:18:10.625Z,8.83
2022-10-15T20:21:00.910Z,10.10
2022-10-15T20:23:49.770Z,10.83
2022-10-15T20:26:38.622Z,9.60
2022-10-15T20:29:27.535Z,9.47
2022-10-15T20:32:30.226Z,9.40
2022-10-15T20:35:22.944Z,10.03
2022-10-15T20:38:13.337Z,9.50
2022-10-15T20:41:02.345Z,8.03
2022-10-15T20:43:53.814Z,8.50
2022-10-15T20:46:44.311Z,9.30
2022-10-15T20:49:36.060Z,11.70
2022-10-15T20:52:25.546Z,12.60
2022-10-15T20:55:16.087Z,10.10
2022-10-15T20:58:04.990Z,9.47
2022-10-15T21:00:53.862Z,10.10
2022-10-15T21:03:42.691Z,9.57
2022-10-15T21:06:31.625Z,7.17
2022-10-15T21:09:20.456Z,8.20
2022-10-15T21:12:10.687Z,7.63
2022-10-15T21:14:59.556Z,8.77
2022-10-15T21:17:48.350Z,7.73
2022-10-15T21:20:37.199Z,4.73
2022-10-15T21:23:26.110Z,4.60
2022-10-15T21:26:15.695Z,4.50
2022-10-15T21:29:05.928Z,5.57
2022-10-15T21:31:54.777Z,3.90
2022-10-15T21:34:43.625Z,5.60
2022-10-15T21:37:34.529Z,7.77
2022-10-15T21:40:23.652Z,5.40
2022-10-15T21:43:21.348Z,5.17
2022-10-15T21:46:12.745Z,3.60
2022-10-15T21:49:02.933Z,5.00
2022-10-15T21:51:51.735Z,3.83
2022-10-15T21:54:40.658Z,4.53
2022-10-15T21:57:29.442Z,3.90
2022-10-15T22:00:18.343Z,3.47
2022-10-15T22:03:08.583Z,3.87
2022-10-15T22:06:00.017Z,4.30
2022-10-15T22:08:49.139Z,4.67
2022-10-15T22:11:38.689Z,3.93
2022-10-15T22:14:27.584Z,3.80
2022-10-15T22:17:16.549Z,5.63
2022-10-15T22:20:07.455Z,3.63
2022-10-15T22:22:56.317Z,5.70
2022-10-15T22:25:46.270Z,6.13
2022-10-15T22:28:35.134Z,5.07
2022-10-15T22:31:24.983Z,5.97
2022-10-15T22:34:13.857Z,4.80
2022-10-15T22:37:04.243Z,7.70
2022-10-15T22:39:53.072Z,7.60
2022-10-15T22:42:42.235Z,5.60
2022-10-15T22:45:31.903Z,9.13
2022-10-15T22:48:20.708Z,9.67
2022-10-15T22:51:10.548Z,5.93
2022-10-15T22:54:01.396Z,6.33
2022-10-15T22:56:50.537Z,3.90
2022-10-15T22:59:41.758Z,8.20
2022-10-15T23:02:30.637Z,7.93
2022-10-15T23:05:19.470Z,10.50
2022-10-15T23:08:08.383Z,6.90
2022-10-15T23:10:58.598Z,5.70
2022-10-15T23:13:48.013Z,8.70
2022-10-15T23:16:37.951Z,9.60
2022-10-15T23:19:26.789Z,5.60
2022-10-15T23:22:15.578Z,7.20
2022-10-15T23:25:04.946Z,10.80
2022-10-15T23:27:55.134Z,7.40
2022-10-15T23:30:44.199Z,12.37
2022-10-15T23:33:33.090Z,10.50
2022-10-15T23:36:22.346Z,10.20
2022-10-15T23:39:14.107Z,10.40
2022-10-15T23:42:02.960Z,8.70
2022-10-15T23:44:53.153Z,14.30
2022-10-15T23:47:42.023Z,7.00
2022-10-15T23:50:35.729Z,7.50
2022-10-15T23:53:24.571Z,8.40
2022-10-15T23:56:13.785Z,15.27
2022-10-15T23:59:02.619Z,7.00
